createdAt,value
2019-02-02T00:02:10.784Z,44.43
2019-02-02T00:04:41.699Z,46.27
2019-02-02T00:07:12.727Z,45.20
2019-02-02T00:09:43.701Z,44.27
2019-02-02T00:12:14.676Z,43.87
2019-02-02T00:14:45.728Z,45.00
2019-02-02T00:17:16.634Z,45.77
2019-02-02T00:19:47.577Z,46.53
2019-02-02T00:22:18.626Z,44.23
2019-02-02T00:24:49.574Z,43.33
2019-02-02T00:27:20.618Z,47.60
2019-02-02T00:29:51.619Z,42.47
2019-02-02T00:32:22.700Z,45.10
2019-02-02T00:34:53.986Z,45.33
2019-02-02T00:37:25.035Z,47.33
2019-02-02T00:39:56.036Z,44.77
2019-02-02T00:42:27.004Z,46.10
2019-02-02T00:44:58.068Z,47.10
2019-02-02T00:47:29.110Z,46.53
2019-02-02T00:50:00.343Z,46.23
2019-02-02T00:52:31.318Z,46.87
2019-02-02T00:55:02.398Z,46.53
2019-02-02T00:57:33.414Z,47.43
2019-02-02T01:00:06.987Z,43.20
2019-02-02T01:02:38.003Z,44.27
2019-02-02T01:05:12.050Z,47.23
2019-02-02T01:07:43.425Z,45.33
2019-02-02T01:10:20.219Z,44.73
2019-02-02T01:12:51.820Z,45.60
2019-02-02T01:15:22.992Z,43.80
2019-02-02T01:17:54.451Z,43.60
2019-02-02T01:20:25.928Z,44.33
2019-02-02T01:22:56.995Z,41.13
2019-02-02T01:25:28.057Z,41.30
2019-02-02T01:28:05.485Z,42.30
2019-02-02T01:30:31.857Z,44.10
2019-02-02T01:33:02.888Z,46.20
2019-02-02T01:35:33.828Z,43.23
2019-02-02T01:38:05.051Z,43.07
2019-02-02T01:40:36.153Z,42.03
2019-02-02T01:43:07.227Z,42.50
2019-02-02T01:45:38.278Z,42.10
2019-02-02T01:48:09.231Z,42.57
2019-02-02T01:50:40.188Z,42.27
2019-02-02T01:53:11.379Z,40.47
2019-02-02T01:55:42.527Z,40.13
2019-02-02T01:58:17.244Z,40.70
2019-02-02T02:00:48.183Z,41.13
2019-02-02T02:03:19.256Z,42.23
2019-02-02T02:05:50.237Z,40.10
2019-02-02T02:08:21.246Z,43.50
2019-02-02T02:10:52.228Z,44.00
2019-02-02T02:13:23.428Z,40.57
2019-02-02T02:15:54.407Z,41.40
2019-02-02T02:18:25.382Z,40.77
2019-02-02T02:20:56.336Z,40.07
2019-02-02T02:23:27.503Z,38.23
2019-02-02T02:25:58.395Z,38.07
2019-02-02T02:28:29.377Z,40.27
2019-02-02T02:31:00.350Z,38.67
2019-02-02T02:33:31.390Z,38.70
2019-02-02T02:36:02.362Z,38.53
2019-02-02T02:38:33.320Z,39.17
2019-02-02T02:41:04.367Z,41.80
2019-02-02T02:43:35.513Z,39.97
2019-02-02T02:46:06.569Z,39.80
2019-02-02T02:48:37.607Z,38.37
2019-02-02T02:51:08.590Z,40.90
2019-02-02T02:53:39.698Z,39.63
2019-02-02T02:56:10.943Z,37.77
2019-02-02T02:58:42.122Z,37.10
2019-02-02T03:01:13.040Z,38.20
2019-02-02T03:03:44.063Z,38.00
2019-02-02T03:06:15.147Z,39.40
2019-02-02T03:08:46.314Z,38.27
2019-02-02T03:11:17.315Z,41.47
2019-02-02T03:13:48.315Z,39.30
2019-02-02T03:16:19.349Z,39.47
2019-02-02T03:18:50.390Z,38.03
2019-02-02T03:21:21.537Z,38.97
2019-02-02T03:23:52.518Z,38.10
2019-02-02T03:26:23.583Z,37.97
2019-02-02T03:28:54.564Z,38.37
2019-02-02T03:31:25.593Z,39.93
2019-02-02T03:33:56.799Z,39.17
2019-02-02T03:36:29.020Z,41.13
2019-02-02T03:39:00.163Z,38.30
2019-02-02T03:41:31.059Z,38.30
2019-02-02T03:44:01.975Z,35.93
2019-02-02T03:46:33.018Z,38.03
2019-02-02T03:49:04.065Z,41.37
2019-02-02T03:51:35.075Z,37.73
2019-02-02T03:54:08.971Z,39.83
2019-02-02T03:56:38.855Z,40.93
2019-02-02T03:59:09.972Z,40.00
2019-02-02T04:01:40.943Z,41.00
2019-02-02T04:04:12.190Z,38.60
2019-02-02T04:06:43.291Z,40.83
2019-02-02T04:09:14.398Z,38.27
2019-02-02T04:11:45.433Z,39.63
2019-02-02T04:14:16.670Z,37.33
2019-02-02T04:16:47.767Z,39.10
2019-02-02T04:19:18.830Z,37.97
2019-02-02T04:21:49.760Z,38.63
2019-02-02T04:24:20.766Z,40.10
2019-02-02T04:26:51.742Z,40.93
2019-02-02T04:29:22.739Z,38.43
2019-02-02T04:31:53.763Z,39.93
2019-02-02T04:34:24.913Z,40.07
2019-02-02T04:36:55.959Z,39.43
2019-02-02T04:39:26.922Z,37.43
2019-02-02T04:41:57.940Z,40.67
2019-02-02T04:44:28.855Z,42.30
2019-02-02T04:46:59.803Z,40.67
2019-02-02T04:49:30.857Z,41.00
2019-02-02T04:52:01.737Z,41.33
2019-02-02T04:54:32.614Z,39.13
2019-02-02T04:57:03.526Z,39.57
2019-02-02T04:59:34.502Z,39.10
2019-02-02T05:02:05.502Z,38.47
2019-02-02T05:04:36.468Z,40.20
2019-02-02T05:07:07.434Z,38.60
2019-02-02T05:09:38.416Z,38.03
2019-02-02T05:12:09.442Z,41.20
2019-02-02T05:14:40.494Z,40.70
2019-02-02T05:17:11.429Z,41.93
2019-02-02T05:19:42.378Z,37.67
2019-02-02T05:22:13.446Z,36.73
2019-02-02T05:24:44.458Z,36.33
2019-02-02T05:27:15.429Z,40.60
2019-02-02T05:29:46.379Z,38.87
2019-02-02T05:32:17.376Z,37.77
2019-02-02T05:34:48.406Z,38.60
2019-02-02T05:37:19.356Z,38.90
2019-02-02T05:39:50.432Z,40.23
2019-02-02T05:42:21.344Z,37.53
2019-02-02T05:44:52.295Z,38.83
2019-02-02T05:47:23.379Z,42.67
2019-02-02T05:49:55.948Z,37.60
2019-02-02T05:52:27.019Z,39.87
2019-02-02T05:54:57.952Z,36.60
2019-02-02T05:57:28.986Z,38.40
2019-02-02T05:59:59.958Z,38.30
2019-02-02T06:02:31.142Z,37.70
2019-02-02T06:05:02.196Z,40.57
2019-02-02T06:07:33.152Z,37.60
2019-02-02T06:10:05.646Z,40.43
2019-02-02T06:12:36.600Z,38.00
2019-02-02T06:15:08.648Z,37.67
2019-02-02T06:17:39.790Z,37.43
2019-02-02T06:20:15.598Z,37.63
2019-02-02T06:22:46.614Z,40.30
2019-02-02T06:25:17.587Z,39.67
2019-02-02T06:27:49.563Z,37.93
2019-02-02T06:30:25.252Z,37.77
2019-02-02T06:32:56.242Z,38.73
2019-02-02T06:35:27.211Z,36.30
2019-02-02T06:37:58.415Z,38.63
2019-02-02T06:40:29.454Z,36.10
2019-02-02T06:43:00.502Z,35.03
2019-02-02T06:45:34.197Z,36.03
2019-02-02T06:48:05.761Z,36.03
2019-02-02T06:50:36.645Z,35.07
2019-02-02T06:53:07.758Z,36.57
2019-02-02T06:55:38.630Z,38.50
2019-02-02T06:58:09.703Z,35.37
2019-02-02T07:00:40.685Z,37.37
2019-02-02T07:03:12.494Z,35.83
2019-02-02T07:05:43.463Z,38.73
2019-02-02T07:08:14.516Z,35.90
2019-02-02T07:10:45.517Z,38.07
2019-02-02T07:13:16.427Z,36.23
2019-02-02T07:15:47.477Z,36.70
2019-02-02T07:18:18.437Z,37.80
2019-02-02T07:20:49.922Z,37.23
2019-02-02T07:23:20.872Z,38.00
2019-02-02T07:25:51.944Z,37.50
2019-02-02T07:28:22.931Z,38.57
2019-02-02T07:30:53.965Z,38.33
2019-02-02T07:33:25.385Z,37.97
2019-02-02T07:35:56.329Z,36.53
2019-02-02T07:38:27.394Z,35.67
2019-02-02T07:40:58.439Z,36.50
2019-02-02T07:43:29.811Z,36.70
2019-02-02T07:46:00.839Z,37.83
2019-02-02T07:48:31.897Z,38.73
2019-02-02T07:51:02.965Z,36.40
2019-02-02T07:53:33.954Z,35.50
2019-02-02T07:56:04.994Z,34.70
2019-02-02T07:58:36.015Z,37.70
2019-02-02T08:01:06.988Z,36.00
2019-02-02T08:03:38.035Z,35.93
2019-02-02T08:06:09.227Z,36.10
2019-02-02T08:08:40.738Z,35.73
2019-02-02T08:11:13.805Z,34.27
2019-02-02T08:13:44.800Z,33.77
2019-02-02T08:16:15.765Z,34.13
2019-02-02T08:18:46.812Z,34.83
2019-02-02T08:21:17.786Z,34.60
2019-02-02T08:23:48.703Z,34.23
2019-02-02T08:26:19.660Z,34.00
2019-02-02T08:28:50.766Z,35.30
2019-02-02T08:31:21.822Z,32.80
2019-02-02T08:33:52.840Z,34.00
2019-02-02T08:36:23.932Z,37.77
2019-02-02T08:38:54.902Z,33.23
2019-02-02T08:41:25.972Z,34.30
2019-02-02T08:43:56.940Z,33.27
2019-02-02T08:46:28.105Z,31.97
2019-02-02T08:48:59.262Z,34.80
2019-02-02T08:51:30.987Z,34.77
2019-02-02T08:54:03.552Z,34.37
2019-02-02T08:56:34.932Z,32.83
2019-02-02T08:59:06.022Z,33.60
2019-02-02T09:01:37.128Z,34.53
2019-02-02T09:04:08.204Z,33.00
2019-02-02T09:06:39.432Z,35.20
2019-02-02T09:09:10.476Z,33.80
2019-02-02T09:11:41.440Z,33.13
2019-02-02T09:14:12.471Z,32.63
2019-02-02T09:16:43.344Z,35.23
2019-02-02T09:19:14.347Z,32.93
2019-02-02T09:21:45.300Z,32.87
2019-02-02T09:24:16.219Z,32.70
2019-02-02T09:26:47.256Z,33.47
2019-02-02T09:29:18.152Z,33.27
2019-02-02T09:31:49.104Z,32.00
2019-02-02T09:34:20.071Z,32.43
2019-02-02T09:36:50.958Z,33.33
2019-02-02T09:39:21.993Z,33.70
2019-02-02T09:41:52.989Z,33.23
2019-02-02T09:44:23.979Z,32.03
2019-02-02T09:46:54.935Z,30.97
2019-02-02T09:49:25.969Z,30.93
2019-02-02T09:51:57.028Z,31.17
2019-02-02T09:54:27.954Z,30.87
2019-02-02T09:56:59.072Z,31.80
2019-02-02T09:59:29.974Z,32.00
2019-02-02T10:02:01.006Z,30.33
2019-02-02T10:04:31.928Z,31.37
2019-02-02T10:07:02.904Z,31.53
2019-02-02T10:09:33.860Z,31.00
2019-02-02T10:12:05.084Z,31.73
2019-02-02T10:14:36.008Z,32.47
2019-02-02T10:17:06.931Z,31.77
2019-02-02T10:19:37.951Z,31.67
2019-02-02T10:22:08.923Z,31.97
2019-02-02T10:24:39.888Z,32.27
2019-02-02T10:27:10.806Z,32.10
2019-02-02T10:29:41.843Z,31.70
2019-02-02T10:32:12.875Z,33.27
2019-02-02T10:34:43.878Z,33.27
2019-02-02T10:37:14.780Z,31.20
2019-02-02T10:39:45.816Z,30.10
2019-02-02T10:42:16.872Z,30.60
2019-02-02T10:44:47.847Z,31.37
2019-02-02T10:47:18.833Z,30.60
2019-02-02T10:49:51.467Z,29.33
2019-02-02T10:52:22.492Z,29.60
2019-02-02T10:54:53.459Z,28.90
2019-02-02T10:57:24.417Z,30.47
2019-02-02T10:59:55.384Z,30.30
2019-02-02T11:02:26.281Z,27.20
2019-02-02T11:04:57.316Z,29.73
2019-02-02T11:07:28.334Z,29.07
2019-02-02T11:09:59.415Z,29.57
2019-02-02T11:12:30.512Z,28.53
2019-02-02T11:15:01.659Z,31.23
2019-02-02T11:17:32.948Z,32.03
2019-02-02T11:20:06.981Z,45.47
2019-02-02T11:22:37.935Z,28.70
2019-02-02T11:25:11.180Z,28.10
2019-02-02T11:27:42.197Z,30.97
2019-02-02T11:30:15.925Z,29.57
2019-02-02T11:32:46.988Z,30.27
2019-02-02T11:35:19.417Z,31.33
2019-02-02T11:37:50.652Z,30.00
2019-02-02T11:40:30.064Z,27.73
2019-02-02T11:43:01.162Z,26.70
2019-02-02T11:45:32.272Z,27.40
2019-02-02T11:48:03.337Z,27.10
2019-02-02T11:50:34.289Z,28.43
2019-02-02T11:53:05.409Z,27.03
2019-02-02T11:55:36.451Z,27.00
2019-02-02T11:58:07.462Z,24.40
2019-02-02T12:00:40.798Z,24.70
2019-02-02T12:03:11.887Z,23.50
2019-02-02T12:05:42.999Z,24.13
2019-02-02T12:08:14.145Z,24.63
2019-02-02T12:10:45.212Z,25.03
2019-02-02T12:13:29.441Z,24.73
2019-02-02T12:16:00.365Z,24.53
2019-02-02T12:18:31.504Z,25.60
2019-02-02T12:21:02.564Z,24.00
2019-02-02T12:23:33.554Z,24.17
2019-02-02T12:26:04.943Z,23.23
2019-02-02T12:28:35.915Z,24.80
2019-02-02T12:31:07.189Z,24.43
2019-02-02T12:33:38.314Z,25.80
2019-02-02T12:36:09.298Z,25.50
2019-02-02T12:38:40.482Z,26.03
2019-02-02T12:41:11.539Z,26.07
2019-02-02T12:43:42.718Z,28.43
2019-02-02T12:46:13.835Z,27.57
2019-02-02T12:49:06.369Z,26.87
2019-02-02T12:51:38.019Z,26.20
2019-02-02T12:54:09.071Z,26.97
2019-02-02T12:56:40.103Z,26.93
2019-02-02T12:59:11.171Z,26.40
2019-02-02T13:01:42.207Z,26.73
2019-02-02T13:04:13.202Z,25.93
2019-02-02T13:06:44.186Z,24.40
2019-02-02T13:09:15.240Z,27.07
2019-02-02T13:11:46.234Z,24.73
2019-02-02T13:14:17.195Z,22.53
2019-02-02T13:16:50.086Z,22.97
2019-02-02T13:19:20.845Z,22.97
2019-02-02T13:21:51.841Z,23.53
2019-02-02T13:24:22.851Z,21.97
2019-02-02T13:26:53.831Z,22.80
2019-02-02T13:29:24.836Z,22.50
2019-02-02T13:31:55.869Z,22.33
2019-02-02T13:34:26.858Z,20.90
2019-02-02T13:36:58.163Z,21.70
2019-02-02T13:39:29.407Z,21.70
2019-02-02T13:42:00.442Z,22.97
2019-02-02T13:44:31.478Z,21.53
2019-02-02T13:47:02.386Z,21.70
2019-02-02T13:49:33.346Z,22.20
2019-02-02T13:52:04.499Z,20.37
2019-02-02T13:54:35.383Z,19.03
2019-02-02T13:57:06.375Z,20.53
2019-02-02T13:59:40.660Z,19.17
2019-02-02T14:02:11.526Z,19.33
2019-02-02T14:04:42.454Z,19.23
2019-02-02T14:07:18.228Z,18.20
2019-02-02T14:09:46.167Z,16.60
2019-02-02T14:12:17.212Z,16.43
2019-02-02T14:14:48.220Z,18.53
2019-02-02T14:17:19.237Z,17.97
2019-02-02T14:19:50.287Z,19.03
2019-02-02T14:22:21.297Z,18.67
2019-02-02T14:24:52.332Z,17.80
2019-02-02T14:27:23.344Z,17.60
2019-02-02T14:29:56.206Z,17.00
2019-02-02T14:32:27.239Z,17.17
2019-02-02T14:34:58.159Z,17.17
2019-02-02T14:37:29.284Z,15.60
2019-02-02T14:40:00.411Z,15.57
2019-02-02T14:42:34.256Z,16.13
2019-02-02T14:45:08.685Z,17.60
2019-02-02T14:47:39.719Z,16.40
2019-02-02T14:50:18.710Z,16.30
2019-02-02T14:52:49.345Z,15.00
2019-02-02T14:55:22.910Z,17.30
2019-02-02T14:57:53.972Z,17.33
2019-02-02T15:00:29.725Z,18.80
2019-02-02T15:03:03.280Z,16.87
2019-02-02T15:05:42.429Z,18.07
2019-02-02T15:08:06.379Z,16.57
2019-02-02T15:10:38.960Z,19.73
2019-02-02T15:13:10.304Z,21.53
2019-02-02T15:15:41.260Z,20.50
2019-02-02T15:18:12.224Z,26.67
2019-02-02T15:20:43.248Z,23.40
2019-02-02T15:23:14.269Z,19.10
2019-02-02T15:25:45.323Z,23.33
2019-02-02T15:28:16.243Z,19.33
2019-02-02T15:30:47.150Z,22.40
2019-02-02T15:33:18.160Z,18.40
2019-02-02T15:35:49.144Z,18.93
2019-02-02T15:38:20.121Z,18.17
2019-02-02T15:40:58.873Z,20.27
2019-02-02T15:43:23.980Z,20.37
2019-02-02T15:45:56.534Z,19.97
2019-02-02T15:48:27.632Z,19.93
2019-02-02T15:50:58.685Z,20.60
2019-02-02T15:53:29.848Z,20.17
2019-02-02T15:56:00.855Z,19.60
2019-02-02T15:58:31.802Z,21.70
2019-02-02T16:01:02.812Z,20.47
2019-02-02T16:03:33.800Z,22.77
2019-02-02T16:06:05.019Z,26.23
2019-02-02T16:08:36.052Z,22.93
2019-02-02T16:11:07.137Z,25.23
2019-02-02T16:13:38.044Z,24.43
2019-02-02T16:16:09.108Z,27.17
2019-02-02T16:18:40.009Z,25.00
2019-02-02T16:21:11.137Z,25.60
2019-02-02T16:23:42.113Z,26.20
2019-02-02T16:26:13.142Z,24.33
2019-02-02T16:28:44.052Z,23.87
2019-02-02T16:31:15.043Z,24.13
2019-02-02T16:33:46.082Z,25.47
2019-02-02T16:36:17.145Z,23.90
2019-02-02T16:38:48.251Z,26.00
2019-02-02T16:41:19.357Z,24.87
2019-02-02T16:43:50.261Z,31.23
2019-02-02T16:46:21.446Z,29.07
2019-02-02T16:48:52.437Z,29.50
2019-02-02T16:51:24.968Z,31.97
2019-02-02T16:53:55.949Z,28.47
2019-02-02T16:56:27.067Z,26.90
2019-02-02T16:58:58.134Z,28.43
2019-02-02T17:01:29.439Z,32.07
2019-02-02T17:04:04.419Z,28.07
2019-02-02T17:06:33.123Z,29.17
2019-02-02T17:09:06.441Z,28.27
2019-02-02T17:11:37.503Z,28.97
2019-02-02T17:14:08.612Z,27.63
2019-02-02T17:16:39.753Z,29.47
2019-02-02T17:19:10.793Z,30.30
2019-02-02T17:21:41.687Z,32.17
2019-02-02T17:24:12.596Z,28.63
2019-02-02T17:26:43.726Z,27.37
2019-02-02T17:29:14.751Z,30.33
2019-02-02T17:31:45.868Z,26.93
2019-02-02T17:34:26.941Z,28.57
2019-02-02T17:36:49.609Z,28.37
2019-02-02T17:39:20.663Z,29.03
2019-02-02T17:41:51.542Z,28.33
2019-02-02T17:44:22.497Z,27.73
2019-02-02T17:46:53.383Z,28.87
2019-02-02T17:49:24.513Z,30.50
2019-02-02T17:51:55.723Z,30.30
2019-02-02T17:54:26.696Z,32.13
2019-02-02T17:56:57.746Z,41.60
2019-02-02T17:59:30.429Z,35.70
2019-02-02T18:02:01.472Z,31.20
2019-02-02T18:04:39.521Z,31.87
2019-02-02T18:07:06.783Z,32.40
2019-02-02T18:09:37.757Z,29.53
2019-02-02T18:12:08.752Z,33.00
2019-02-02T18:14:39.792Z,34.03
2019-02-02T18:17:10.846Z,36.33
2019-02-02T18:19:41.901Z,35.53
2019-02-02T18:22:12.793Z,33.83
2019-02-02T18:24:44.663Z,31.97
2019-02-02T18:27:15.750Z,30.33
2019-02-02T18:29:46.762Z,31.07
2019-02-02T18:32:17.712Z,31.17
2019-02-02T18:34:51.260Z,29.40
2019-02-02T18:37:21.196Z,27.50
2019-02-02T18:39:52.212Z,27.63
2019-02-02T18:42:23.298Z,26.63
2019-02-02T18:44:54.441Z,27.63
2019-02-02T18:47:25.393Z,27.73
2019-02-02T18:49:56.452Z,28.43
2019-02-02T18:52:27.368Z,28.90
2019-02-02T18:54:58.430Z,29.20
2019-02-02T18:57:29.377Z,28.97
2019-02-02T19:00:00.526Z,28.93
2019-02-02T19:02:31.507Z,27.93
2019-02-02T19:05:04.158Z,28.83
2019-02-02T19:10:16.689Z,32.07
2019-02-02T19:12:48.852Z,30.07
2019-02-02T19:15:19.875Z,27.23
2019-02-02T19:17:53.265Z,27.40
2019-02-02T19:20:27.810Z,27.10
2019-02-02T19:23:00.043Z,27.77
2019-02-02T19:25:31.149Z,29.87
2019-02-02T19:28:02.252Z,28.67
2019-02-02T19:30:34.565Z,30.57
2019-02-02T19:33:06.141Z,31.63
2019-02-02T19:35:37.263Z,33.70
2019-02-02T19:38:09.378Z,32.53
2019-02-02T19:40:41.620Z,32.40
2019-02-02T19:43:15.852Z,30.73
2019-02-02T19:45:47.803Z,35.57
2019-02-02T19:48:18.882Z,33.73
2019-02-02T19:50:50.010Z,38.13
2019-02-02T19:53:21.015Z,50.13
2019-02-02T19:55:52.231Z,35.63
2019-02-02T19:58:23.732Z,37.17
2019-02-02T20:00:54.819Z,38.17
2019-02-02T20:03:29.107Z,38.50
2019-02-02T20:06:00.025Z,39.70
2019-02-02T20:08:32.302Z,40.20
2019-02-02T20:11:04.304Z,41.43
2019-02-02T20:13:36.520Z,41.93
2019-02-02T20:16:07.483Z,42.13
2019-02-02T20:18:38.492Z,40.53
2019-02-02T20:21:09.536Z,39.90
2019-02-02T20:23:40.531Z,42.77
2019-02-02T20:26:11.583Z,40.87
2019-02-02T20:28:42.652Z,39.87
2019-02-02T20:31:13.653Z,40.93
2019-02-02T20:33:44.538Z,38.87
2019-02-02T20:36:15.493Z,39.57
2019-02-02T20:38:46.563Z,42.60
2019-02-02T20:41:17.717Z,41.63
2019-02-02T20:43:48.680Z,38.83
2019-02-02T20:46:19.795Z,47.40
2019-02-02T20:48:50.808Z,39.83
2019-02-02T20:51:21.768Z,39.63
2019-02-02T20:53:52.783Z,36.77
2019-02-02T20:56:23.857Z,38.20
2019-02-02T20:58:54.771Z,40.63
2019-02-02T21:01:25.924Z,43.50
2019-02-02T21:03:56.915Z,39.77
2019-02-02T21:06:27.879Z,39.87
2019-02-02T21:08:58.972Z,40.30
2019-02-02T21:11:30.374Z,41.27
2019-02-02T21:14:01.398Z,39.63
2019-02-02T21:16:32.438Z,40.63
2019-02-02T21:19:03.500Z,38.87
2019-02-02T21:21:34.398Z,38.53
2019-02-02T21:24:05.552Z,42.13
2019-02-02T21:26:36.512Z,40.30
2019-02-02T21:29:07.579Z,37.83
2019-02-02T21:31:38.575Z,41.17
2019-02-02T21:34:09.586Z,38.00
2019-02-02T21:36:54.276Z,39.07
2019-02-02T21:39:30.865Z,36.93
2019-02-02T21:42:01.834Z,38.53
2019-02-02T21:44:42.847Z,38.87
2019-02-02T21:47:05.704Z,38.73
2019-02-02T21:49:36.574Z,37.03
2019-02-02T21:52:07.594Z,38.73
2019-02-02T21:54:38.705Z,39.70
2019-02-02T21:57:09.667Z,37.50
2019-02-02T21:59:40.915Z,43.30
2019-02-02T22:02:11.798Z,49.57
2019-02-02T22:04:43.011Z,38.07
2019-02-02T22:07:14.418Z,38.67
2019-02-02T22:09:45.387Z,38.17
2019-02-02T22:12:16.372Z,37.60
2019-02-02T22:14:47.370Z,37.40
2019-02-02T22:17:18.402Z,38.17
2019-02-02T22:19:49.722Z,40.10
2019-02-02T22:22:20.757Z,43.27
2019-02-02T22:24:51.673Z,40.53
2019-02-02T22:27:22.637Z,42.63
2019-02-02T22:29:53.719Z,42.33
2019-02-02T22:32:24.880Z,37.80
2019-02-02T22:34:55.826Z,38.50
2019-02-02T22:37:28.512Z,38.77
2019-02-02T22:39:59.590Z,36.30
2019-02-02T22:42:30.890Z,35.83
2019-02-02T22:45:01.986Z,39.20
2019-02-02T22:47:32.908Z,36.00
2019-02-02T22:50:05.606Z,37.77
2019-02-02T22:52:36.593Z,37.13
2019-02-02T22:55:11.185Z,35.17
2019-02-02T22:57:42.277Z,36.77
2019-02-02T23:00:29.881Z,35.33
2019-02-02T23:03:01.994Z,35.13
2019-02-02T23:05:58.963Z,35.90
2019-02-02T23:08:49.421Z,36.70
2019-02-02T23:11:26.369Z,34.57
2019-02-02T23:14:09.061Z,35.33
2019-02-02T23:16:40.181Z,36.87
2019-02-02T23:19:11.204Z,37.33
2019-02-02T23:21:42.257Z,38.60
2019-02-02T23:24:13.339Z,39.10
2019-02-02T23:26:44.410Z,38.43
2019-02-02T23:29:15.387Z,37.20
2019-02-02T23:31:46.284Z,38.00
2019-02-02T23:34:17.231Z,37.77
2019-02-02T23:36:51.801Z,37.07
2019-02-02T23:39:20.846Z,36.87
2019-02-02T23:41:51.788Z,36.93
2019-02-02T23:44:22.783Z,36.77
2019-02-02T23:46:53.685Z,38.20
2019-02-02T23:49:24.715Z,37.80
2019-02-02T23:51:56.106Z,37.03
2019-02-02T23:54:27.120Z,37.43
2019-02-02T23:56:58.096Z,38.07
2019-02-02T23:59:29.171Z,34.63
